DUNK1: Neosho River Nr Dunlap, KS

                                SHEF ID:       DUNK1     NEOSHO R NR DUNLAP, KS
STATION TYPE:
Regulating: Stage = 26.00, Flow = 6358

PRECIP STAGE RIV-FLOW BAT-LOAD
in ft cfs volt
Ccp-Rev Ccp-Rev Ccp-Rev Ccp-Rev
(America/Chicago)
05/05 00:00 0.00 12.75 338 12.18
05/05 01:00 0.81 12.86 363 12.17
05/05 02:00 0.00 12.99 393 12.13
05/05 03:00 0.00 12.99 393 12.10
05/05 04:00 0.01 12.97 388 12.06
05/05 05:00 0.00 12.98 390 12.03
05/05 06:00 0.00 13.06 408 12.00
05/05 07:00 0.00 13.10 418 11.97
05/05 08:00 0.08 13.15 429 12.31
05/05 09:00 0.00 13.18 436 13.50
05/05 10:00 0.04 13.14 427 13.49
05/05 11:00 0.00 13.08 413 13.45
05/05 12:00 0.01 13.06 408 13.32
05/05 13:00 0.00 13.13 424 13.22
05/05 14:00 0.00 13.04 404 13.23
05/05 15:00 0.01 13.02 399 13.22
05/05 16:00 0.00 13.00 395 13.19
05/05 17:00 0.00 12.98 390 13.11
05/05 18:00 0.00 12.95 383 13.01
05/05 19:00 0.00 12.93 379 12.87
05/05 20:00 0.00 12.92 377 12.78
05/05 21:00 0.00 12.91 374 12.35
05/05 22:00 0.00 12.81 352 12.22
05/05 23:00 0.00 12.88 368 12.21
Data processed at Wed 06May2026 04:44 GMT

NOTICE: If you are parsing this page

Please convert to using our Data API. Starting early 2026 we will be migrating to: https://water.usace.army.mil with modern pages rendered in JavaScript. When this migration completes you will no longer be able to scrape this page! CWMSDataAPI (CDA)

Timeseries IDs (TSIDs)

TSIDs used from left to right in the data table
DUNL.Precip-Inc.Total.1Hour.1Hour.Ccp-Rev
DUNL.Stage.Inst.1Hour.0.Ccp-Rev
DUNL.Flow.Inst.1Hour.0.Ccp-Rev
DUNL.Volt-Battery Load.Inst.1Hour.0.Ccp-Rev

                            

All information presented herein is the property of the government of the United States of America and may be revised or deleted at any time without prior notice. Dissemination of this information without the expressed written consent of the Public Affairs Office, Tulsa District U.S. Army Corps of Engineers is strictly prohibited. These data are gathered electronically and, as presented, have NOT undergone any form of quality control. These data are NOT guaranteed to be valid or correct.